Time;durP1;ratioP1;P1;durP2;ratioP2;P2;SDS_P1;SDS_P2;PMS_P1;PMS_P2;Temp;Humidity;BMP_temperature;BMP_pressure;BME280_temperature;BME280_humidity;BME280_pressure;Samples;Min_cycle;Max_cycle;Signal;HPM_P1;HPM_P2
2024/01/16 00:00:26;;;;;;;2.45;0.70;;;0.20;99.90;;;;;;5075297;28;20532;-55
2024/01/16 00:02:54;;;;;;;1.70;0.80;;;0.30;99.90;;;;;;5075900;28;20435;-54
2024/01/16 00:05:21;;;;;;;1.30;0.80;;;0.30;1.00;;;;;;5075912;28;20437;-57
2024/01/16 00:07:49;;;;;;;3.10;0.70;;;0.30;1.00;;;;;;5073085;28;20796;-55
2024/01/16 00:10:16;;;;;;;1.25;0.70;;;0.30;1.00;;;;;;5068320;28;21010;-58
2024/01/16 00:12:43;;;;;;;1.38;0.77;;;0.20;99.90;;;;;;5076256;28;20432;-56
2024/01/16 00:15:11;;;;;;;1.23;0.70;;;0.20;99.90;;;;;;5073545;28;20443;-57
2024/01/16 00:17:38;;;;;;;1.77;0.70;;;0.30;1.00;;;;;;5077399;28;20828;-59
2024/01/16 00:20:06;;;;;;;1.63;0.60;;;0.20;99.90;;;;;;5069419;28;20713;-57
2024/01/16 00:22:33;;;;;;;1.90;0.77;;;0.20;99.90;;;;;;5076173;28;20443;-57
2024/01/16 00:25:02;;;;;;;1.83;0.70;;;0.10;1.00;;;;;;5073016;28;20522;-56
2024/01/16 00:27:29;;;;;;;1.40;0.60;;;0.10;1.00;;;;;;5056819;28;20428;-56
2024/01/16 00:29:56;;;;;;;1.60;0.60;;;0.00;1.00;;;;;;5071256;28;20411;-54
2024/01/16 00:32:23;;;;;;;1.80;0.70;;;0.30;1.00;;;;;;5075964;28;20433;-56
2024/01/16 00:34:50;;;;;;;2.65;0.70;;;0.30;1.00;;;;;;5058074;28;20676;-57
2024/01/16 00:37:18;;;;;;;2.00;0.70;;;0.40;1.00;;;;;;5056141;28;20432;-57
2024/01/16 00:39:45;;;;;;;1.67;0.80;;;0.40;1.00;;;;;;5102215;28;20791;-58
2024/01/16 00:42:13;;;;;;;2.53;0.70;;;0.40;1.00;;;;;;5072689;28;20439;-57
2024/01/16 00:44:40;;;;;;;1.40;0.70;;;0.50;99.90;;;;;;5074456;28;20438;-56
2024/01/16 00:47:07;;;;;;;1.30;0.60;;;0.70;99.90;;;;;;5073610;28;20439;-57
2024/01/16 00:49:36;;;;;;;1.05;0.70;;;0.60;27.80;;;;;;5071999;28;20907;-58
2024/01/16 00:52:03;;;;;;;1.13;0.60;;;0.60;1.00;;;;;;5072290;28;20502;-56
2024/01/16 00:54:30;;;;;;;1.60;0.60;;;0.70;99.90;;;;;;5070671;28;20447;-57
2024/01/16 00:56:59;;;;;;;1.70;0.70;;;0.60;1.00;;;;;;5075764;28;20438;-56
2024/01/16 00:59:28;;;;;;;2.60;0.70;;;0.60;44.70;;;;;;5075502;28;20599;-56
2024/01/16 01:01:55;;;;;;;1.10;0.60;;;0.80;1.00;;;;;;5072896;28;20423;-56
2024/01/16 01:04:22;;;;;;;2.10;0.60;;;0.80;99.90;;;;;;5061692;28;20848;-57
2024/01/16 01:06:49;;;;;;;1.60;0.60;;;0.70;99.90;;;;;;5075901;28;20434;-56
2024/01/16 01:09:16;;;;;;;2.20;0.60;;;0.60;1.00;;;;;;5072716;28;20440;-59
2024/01/16 01:11:43;;;;;;;1.70;0.63;;;0.70;99.90;;;;;;5072236;28;20450;-53
2024/01/16 01:14:10;;;;;;;2.08;0.70;;;0.80;99.90;;;;;;5076930;28;20430;-57
2024/01/16 01:16:39;;;;;;;2.00;0.60;;;0.80;94.30;;;;;;5072125;28;20424;-57
2024/01/16 01:19:06;;;;;;;1.80;0.70;;;1.00;1.00;;;;;;5070601;28;20428;-58
2024/01/16 01:21:33;;;;;;;1.20;0.50;;;1.00;99.90;;;;;;5076101;28;20570;-56
2024/01/16 01:24:00;;;;;;;2.20;0.60;;;1.20;99.90;;;;;;5068774;28;20435;-57
2024/01/16 01:26:27;;;;;;;1.08;0.57;;;1.00;99.90;;;;;;5075354;28;20546;-56
2024/01/16 01:28:55;;;;;;;2.42;0.70;;;1.00;99.90;;;;;;5071004;28;20433;-56
2024/01/16 01:31:22;;;;;;;1.10;0.60;;;1.10;1.00;;;;;;5063062;28;20419;-58
2024/01/16 01:33:50;;;;;;;2.13;0.70;;;1.20;1.00;;;;;;5069565;28;20440;-57
2024/01/16 01:36:17;;;;;;;1.60;0.60;;;1.30;99.90;;;;;;5059414;28;20436;-57
2024/01/16 01:38:44;;;;;;;1.80;0.70;;;1.50;30.00;;;;;;5068741;28;20938;-58
2024/01/16 01:41:11;;;;;;;1.77;0.60;;;1.40;1.00;;;;;;5067949;28;20748;-58
2024/01/16 01:43:39;;;;;;;1.55;0.60;;;1.40;99.90;;;;;;5056897;28;20443;-55
2024/01/16 01:46:16;;;;;;;1.10;0.63;;;1.60;49.60;;;;;;5054861;28;20428;-58
2024/01/16 01:48:44;;;;;;;2.97;0.50;;;1.70;1.00;;;;;;5070435;28;20455;-58
2024/01/16 01:51:14;;;;;;;1.00;0.60;;;1.60;1.00;;;;;;5075141;28;20431;-58
2024/01/16 01:53:44;;;;;;;1.42;0.80;;;1.60;1.00;;;;;;5075914;28;20435;-56
2024/01/16 01:56:18;;;;;;;1.10;0.60;;;1.60;1.00;;;;;;5068404;28;20429;-57
2024/01/16 01:58:47;;;;;;;1.20;0.60;;;1.40;1.00;;;;;;5066535;28;20813;-57
2024/01/16 02:01:15;;;;;;;1.40;0.60;;;1.30;37.70;;;;;;5076023;28;20507;-58
2024/01/16 02:03:44;;;;;;;2.85;0.70;;;1.30;99.90;;;;;;5074319;28;20436;-55
2024/01/16 02:06:16;;;;;;;1.50;0.60;;;1.20;1.00;;;;;;5075049;28;20419;-55
2024/01/16 02:08:43;;;;;;;2.85;0.50;;;1.00;1.00;;;;;;5074573;28;20431;-57
2024/01/16 02:11:10;;;;;;;1.42;0.70;;;0.90;1.00;;;;;;5067110;28;20423;-55
2024/01/16 02:13:38;;;;;;;1.02;0.70;;;0.80;99.90;;;;;;5069971;28;20433;-57
2024/01/16 02:16:05;;;;;;;1.70;0.60;;;0.60;99.90;;;;;;5073274;28;20806;-57
2024/01/16 02:18:32;;;;;;;0.70;0.50;;;0.40;1.00;;;;;;5074194;28;20482;-57
2024/01/16 02:21:04;;;;;;;1.60;0.70;;;0.30;1.00;;;;;;5071313;28;20432;-55
2024/01/16 02:23:33;;;;;;;2.37;0.60;;;0.30;1.00;;;;;;5059204;28;20428;-55
2024/01/16 02:26:01;;;;;;;0.93;0.50;;;0.30;99.90;;;;;;5054557;28;20697;-57
2024/01/16 02:28:28;;;;;;;1.90;0.70;;;0.30;1.00;;;;;;5055827;28;20422;-57
2024/01/16 02:30:56;;;;;;;0.98;0.60;;;0.20;99.90;;;;;;5067439;28;20826;-57
2024/01/16 02:33:23;;;;;;;1.90;0.60;;;0.10;1.00;;;;;;5069981;28;20439;-57
2024/01/16 02:35:53;;;;;;;2.30;0.70;;;0.10;99.90;;;;;;5074025;28;20431;-58
2024/01/16 02:38:23;;;;;;;1.15;0.60;;;0.10;1.00;;;;;;5074605;28;20710;-57
2024/01/16 02:40:51;;;;;;;2.67;0.70;;;0.20;99.90;;;;;;5074162;28;20435;-58
2024/01/16 02:43:19;;;;;;;1.30;0.70;;;0.40;1.00;;;;;;5074132;28;20726;-57
2024/01/16 02:45:46;;;;;;;1.40;0.70;;;0.40;99.90;;;;;;5073877;28;20931;-57
2024/01/16 02:48:13;;;;;;;1.20;0.60;;;0.30;1.00;;;;;;5070739;28;20708;-57
2024/01/16 02:50:40;;;;;;;1.20;0.70;;;0.20;78.50;;;;;;5065226;28;20840;-57
2024/01/16 02:53:07;;;;;;;1.77;0.60;;;0.20;99.90;;;;;;5074081;28;20435;-58
2024/01/16 02:55:34;;;;;;;1.30;0.60;;;0.10;99.90;;;;;;5072559;28;20520;-58
2024/01/16 02:58:03;;;;;;;1.50;0.60;;;0.10;1.00;;;;;;5074184;28;20678;-57
2024/01/16 03:00:30;;;;;;;1.40;0.60;;;0.20;99.90;;;;;;5073030;28;20455;-57
2024/01/16 03:02:57;;;;;;;1.25;0.60;;;0.20;99.90;;;;;;5074316;28;20826;-55
2024/01/16 03:05:24;;;;;;;1.60;0.60;;;0.00;1.00;;;;;;5072943;28;20450;-56
2024/01/16 03:07:51;;;;;;;1.30;0.60;;;-0.10;1.00;;;;;;5073417;28;20459;-56
2024/01/16 03:10:18;;;;;;;1.27;0.60;;;0.00;1.00;;;;;;5057436;28;20432;-58
2024/01/16 03:12:45;;;;;;;2.10;0.70;;;0.00;99.90;;;;;;5063627;28;20527;-56
2024/01/16 03:15:14;;;;;;;1.40;0.60;;;0.10;1.00;;;;;;5074261;28;20447;-55
2024/01/16 03:17:41;;;;;;;1.60;0.60;;;0.00;1.00;;;;;;5074007;28;20431;-55
2024/01/16 03:20:09;;;;;;;1.70;0.60;;;-0.10;1.00;;;;;;5063633;28;20431;-57
2024/01/16 03:22:36;;;;;;;1.40;0.60;;;-0.20;1.00;;;;;;5061209;28;20437;-55
2024/01/16 03:25:03;;;;;;;1.50;0.60;;;-0.10;99.90;;;;;;5071171;28;20417;-58
2024/01/16 03:27:31;;;;;;;1.50;0.60;;;-0.10;99.90;;;;;;5063348;28;20434;-57
2024/01/16 03:29:58;;;;;;;1.02;0.60;;;-0.10;1.00;;;;;;5074498;28;20697;-57
2024/01/16 03:32:26;;;;;;;2.25;0.70;;;-0.20;1.00;;;;;;5075767;28;20423;-56
2024/01/16 03:34:53;;;;;;;1.10;0.60;;;-0.20;1.00;;;;;;5077587;28;20431;-57
2024/01/16 03:37:20;;;;;;;1.80;0.80;;;-0.20;1.00;;;;;;5079527;28;20415;-58
2024/01/16 03:39:50;;;;;;;2.10;0.60;;;-0.20;99.90;;;;;;5077822;28;20417;-56
2024/01/16 03:42:17;;;;;;;1.50;0.70;;;-0.20;99.90;;;;;;5078646;28;20435;-56
2024/01/16 03:44:47;;;;;;;1.10;0.57;;;-0.20;99.90;;;;;;5078850;28;20427;-57
2024/01/16 03:47:17;;;;;;;1.20;0.60;;;-0.20;99.90;;;;;;5078735;28;20426;-57
2024/01/16 03:49:46;;;;;;;1.10;0.60;;;-0.20;1.00;;;;;;5078988;28;20782;-56
2024/01/16 03:52:14;;;;;;;0.80;0.60;;;-0.20;99.90;;;;;;5078083;28;20419;-56
2024/01/16 03:54:41;;;;;;;1.60;0.70;;;0.00;1.00;;;;;;5078539;28;20438;-58
2024/01/16 03:57:08;;;;;;;0.80;0.50;;;-0.10;1.00;;;;;;5076305;28;20438;-57
2024/01/16 03:59:38;;;;;;;2.00;0.60;;;-0.10;1.00;;;;;;5078142;28;20729;-58
2024/01/16 04:02:05;;;;;;;1.50;0.60;;;-0.20;90.40;;;;;;5076771;28;20851;-57
2024/01/16 04:04:32;;;;;;;1.05;0.60;;;-0.30;1.00;;;;;;5076944;28;20442;-57
2024/01/16 04:07:01;;;;;;;1.52;0.60;;;-0.40;99.90;;;;;;5076521;28;20443;-57
2024/01/16 04:09:28;;;;;;;1.70;0.60;;;-0.40;99.90;;;;;;5078036;28;20439;-56
2024/01/16 04:11:55;;;;;;;1.00;0.60;;;-0.40;99.90;;;;;;5078241;28;20419;-56
2024/01/16 04:14:22;;;;;;;1.00;0.60;;;-0.40;1.00;;;;;;5077494;28;20435;-57
2024/01/16 04:16:49;;;;;;;1.40;0.60;;;-0.40;99.90;;;;;;5077158;28;20439;-57
2024/01/16 04:19:16;;;;;;;1.30;0.50;;;-0.50;99.90;;;;;;5077526;28;20430;-57
2024/01/16 04:21:43;;;;;;;1.67;0.60;;;-0.40;99.90;;;;;;5075772;28;20812;-57
2024/01/16 04:24:12;;;;;;;1.30;0.50;;;-0.50;99.90;;;;;;5076574;28;21106;-57
2024/01/16 04:26:39;;;;;;;1.40;0.60;;;-0.50;99.90;;;;;;5077431;28;20484;-57
2024/01/16 04:29:06;;;;;;;2.03;0.60;;;-0.40;1.00;;;;;;5077688;28;20424;-56
2024/01/16 04:31:40;;;;;;;1.50;0.60;;;-0.40;99.90;;;;;;5077021;28;20455;-58
2024/01/16 04:34:07;;;;;;;1.00;0.50;;;-0.30;1.00;;;;;;5076809;28;20485;-58
2024/01/16 04:36:34;;;;;;;1.53;0.60;;;-0.20;1.00;;;;;;5076884;28;20431;-57
2024/01/16 04:39:03;;;;;;;0.93;0.50;;;-0.20;1.00;;;;;;5076700;28;20530;-58
2024/01/16 04:41:31;;;;;;;0.90;0.50;;;-0.10;1.00;;;;;;5075489;28;20481;-56
2024/01/16 04:43:58;;;;;;;1.85;0.50;;;0.10;99.90;;;;;;5076746;28;20430;-57
2024/01/16 04:46:28;;;;;;;1.40;0.60;;;0.40;99.90;;;;;;5076536;28;20415;-58
2024/01/16 04:48:56;;;;;;;1.85;0.65;;;0.50;99.90;;;;;;5075458;28;20462;-59
2024/01/16 04:51:23;;;;;;;2.30;0.50;;;0.30;1.00;;;;;;5057740;28;20436;-60
2024/01/16 04:53:51;;;;;;;2.47;0.60;;;0.10;4.40;;;;;;5056735;28;20426;-59
2024/01/16 04:56:19;;;;;;;1.50;0.60;;;0.20;99.90;;;;;;5063086;28;20435;-59
2024/01/16 04:58:47;;;;;;;1.20;0.60;;;0.40;99.90;;;;;;5072923;28;20828;-59
2024/01/16 05:01:18;;;;;;;1.00;0.60;;;0.30;1.00;;;;;;5064734;28;20431;-58
2024/01/16 05:03:45;;;;;;;0.80;0.50;;;0.30;99.90;;;;;;5075714;28;20420;-60
2024/01/16 05:06:15;;;;;;;1.25;0.50;;;0.20;94.60;;;;;;5067680;28;20425;-59
2024/01/16 05:08:42;;;;;;;0.90;0.50;;;0.00;1.00;;;;;;5056140;28;20475;-58
2024/01/16 05:11:10;;;;;;;1.27;0.60;;;-0.10;99.90;;;;;;5067100;28;20439;-59
2024/01/16 05:13:37;;;;;;;1.10;0.50;;;-0.10;99.90;;;;;;5072010;28;20415;-59
2024/01/16 05:16:06;;;;;;;1.10;0.60;;;-0.20;99.90;;;;;;5069841;28;20506;-58
2024/01/16 05:18:34;;;;;;;1.10;0.50;;;-0.20;99.90;;;;;;5059359;28;20486;-59
2024/01/16 05:21:02;;;;;;;1.02;0.50;;;-0.30;1.00;;;;;;5074258;28;21043;-59
2024/01/16 05:23:29;;;;;;;1.90;0.60;;;-0.40;99.90;;;;;;5073733;28;20435;-59
2024/01/16 05:25:56;;;;;;;2.33;0.60;;;-0.40;1.00;;;;;;5073455;28;20431;-59
2024/01/16 05:28:23;;;;;;;1.00;0.60;;;-0.30;99.90;;;;;;5074022;28;20428;-59
2024/01/16 05:30:50;;;;;;;1.40;0.60;;;-0.20;1.00;;;;;;5073614;28;20478;-59
2024/01/16 05:33:19;;;;;;;1.90;0.50;;;-0.20;99.90;;;;;;5073951;28;20463;-59
2024/01/16 05:35:46;;;;;;;0.80;0.50;;;-0.20;1.00;;;;;;5073628;28;20432;-58
2024/01/16 05:38:13;;;;;;;1.50;0.50;;;0.00;1.00;;;;;;5073418;28;20432;-58
2024/01/16 05:40:41;;;;;;;1.50;0.60;;;0.00;99.90;;;;;;5075173;28;20859;-58
2024/01/16 05:43:08;;;;;;;1.00;0.50;;;-0.30;97.00;;;;;;5071808;28;20435;-59
2024/01/16 05:45:35;;;;;;;1.63;0.50;;;-0.40;99.90;;;;;;5074103;28;20500;-59
2024/01/16 05:48:02;;;;;;;2.42;0.70;;;-0.40;1.00;;;;;;5074786;28;20451;-58
2024/01/16 05:50:31;;;;;;;1.00;0.60;;;-0.50;1.00;;;;;;5069745;28;20447;-58
2024/01/16 05:52:59;;;;;;;0.70;0.50;;;-0.80;99.90;;;;;;5059703;28;20420;-59
2024/01/16 05:55:26;;;;;;;1.20;0.60;;;-1.00;99.90;;;;;;5072702;28;20754;-58
2024/01/16 05:57:53;;;;;;;1.90;0.80;;;-1.10;1.00;;;;;;5072929;28;20431;-59
2024/01/16 06:00:22;;;;;;;2.17;0.70;;;-1.30;99.90;;;;;;5071532;28;20427;-59
2024/01/16 06:02:49;;;;;;;1.33;0.60;;;-1.30;99.90;;;;;;5072443;28;20432;-59
2024/01/16 06:05:16;;;;;;;1.50;0.67;;;-1.10;99.90;;;;;;5072295;28;20860;-58
2024/01/16 06:07:45;;;;;;;1.20;0.50;;;-0.70;1.00;;;;;;5071926;28;20427;-59
2024/01/16 06:10:13;;;;;;;1.98;0.50;;;-0.70;1.00;;;;;;5072610;28;20843;-59
2024/01/16 06:12:40;;;;;;;1.70;0.50;;;-0.60;99.90;;;;;;5071328;28;20431;-59
2024/01/16 06:15:08;;;;;;;1.10;0.50;;;-0.30;99.90;;;;;;5073239;28;20833;-58
2024/01/16 06:17:35;;;;;;;1.00;0.60;;;-0.20;1.00;;;;;;5074566;28;20432;-59
2024/01/16 06:20:04;;;;;;;1.70;0.60;;;-0.30;39.70;;;;;;5072694;28;20452;-59
2024/01/16 06:22:31;;;;;;;1.45;0.60;;;-0.70;99.90;;;;;;5069341;28;20504;-60
2024/01/16 06:25:00;;;;;;;2.10;0.60;;;-0.90;82.30;;;;;;5056750;28;20470;-60
2024/01/16 06:27:28;;;;;;;1.20;0.70;;;-1.00;22.50;;;;;;5071140;28;20522;-60
2024/01/16 06:29:55;;;;;;;1.53;0.70;;;-1.20;1.00;;;;;;5071234;28;20447;-60
2024/01/16 06:32:22;;;;;;;2.63;0.60;;;-1.30;99.90;;;;;;5072518;28;20431;-60
2024/01/16 06:34:49;;;;;;;1.65;0.70;;;-1.40;1.00;;;;;;5071273;28;20449;-60
2024/01/16 06:37:16;;;;;;;2.70;0.70;;;-1.40;1.00;;;;;;5071465;28;20435;-60
2024/01/16 06:39:43;;;;;;;2.20;0.70;;;-1.30;2.10;;;;;;5070489;28;21015;-60
2024/01/16 06:42:12;;;;;;;1.80;0.70;;;-1.30;1.00;;;;;;5071213;28;20431;-60
2024/01/16 06:44:39;;;;;;;1.50;0.70;;;-1.30;1.00;;;;;;5070427;28;20476;-60
2024/01/16 06:47:06;;;;;;;1.00;0.63;;;-1.30;99.90;;;;;;5069453;28;20432;-60
2024/01/16 06:49:34;;;;;;;1.50;0.77;;;-1.30;1.00;;;;;;5070031;28;20448;-60
2024/01/16 06:52:01;;;;;;;1.95;0.52;;;-1.30;1.00;;;;;;5071762;28;20908;-60
2024/01/16 06:54:28;;;;;;;1.20;0.60;;;-1.30;88.70;;;;;;5070841;28;20446;-60
2024/01/16 06:56:55;;;;;;;1.27;0.70;;;-1.20;1.00;;;;;;5071186;28;20443;-61
2024/01/16 06:59:23;;;;;;;2.33;0.60;;;-1.40;99.90;;;;;;5070654;28;20443;-60
2024/01/16 07:01:51;;;;;;;1.33;0.55;;;-1.40;1.00;;;;;;5072631;28;20733;-60
2024/01/16 07:04:18;;;;;;;0.80;0.50;;;-1.40;1.00;;;;;;5071174;28;21015;-60
2024/01/16 07:06:45;;;;;;;1.25;0.50;;;-1.30;1.00;;;;;;5070512;28;20435;-61
2024/01/16 07:09:12;;;;;;;1.23;0.60;;;-1.30;1.00;;;;;;5071411;28;20894;-62
2024/01/16 07:11:42;;;;;;;0.73;0.50;;;-1.30;99.90;;;;;;5073707;28;20415;-60
2024/01/16 07:14:10;;;;;;;1.00;0.45;;;-1.30;99.90;;;;;;5071207;28;20435;-60
2024/01/16 07:16:38;;;;;;;1.50;0.40;;;-1.20;63.40;;;;;;5070336;28;20427;-59
2024/01/16 07:19:07;;;;;;;1.00;0.40;;;-1.20;52.20;;;;;;5069677;28;20431;-59
2024/01/16 07:21:35;;;;;;;2.10;0.50;;;-1.30;1.00;;;;;;5070920;28;20443;-60
2024/01/16 07:24:02;;;;;;;2.45;0.80;;;-1.30;99.90;;;;;;5072141;28;20439;-61
2024/01/16 07:26:30;;;;;;;1.30;0.60;;;-1.40;99.90;;;;;;5072602;28;20444;-61
2024/01/16 07:28:57;;;;;;;1.50;0.50;;;-1.50;99.90;;;;;;5069248;28;20447;-61
2024/01/16 07:31:24;;;;;;;1.60;0.60;;;-1.50;99.90;;;;;;5072319;28;20422;-61
2024/01/16 07:33:53;;;;;;;2.63;0.60;;;-1.60;1.00;;;;;;5068437;28;20431;-60
2024/01/16 07:36:20;;;;;;;1.40;0.77;;;-1.50;1.00;;;;;;5071179;28;20447;-60
2024/01/16 07:38:47;;;;;;;1.00;0.50;;;-1.50;1.00;;;;;;5071284;28;20431;-61
2024/01/16 07:41:14;;;;;;;1.35;0.68;;;-1.40;1.00;;;;;;5069653;28;20475;-60
2024/01/16 07:43:41;;;;;;;1.20;0.60;;;-1.20;1.00;;;;;;5061297;28;20440;-60
2024/01/16 07:46:08;;;;;;;1.20;0.50;;;-1.20;90.30;;;;;;5057209;28;20501;-61
2024/01/16 07:48:35;;;;;;;0.90;0.60;;;-1.20;90.70;;;;;;5069206;28;20443;-60
2024/01/16 07:51:04;;;;;;;2.25;0.70;;;-1.30;1.00;;;;;;5068586;28;20725;-60
2024/01/16 07:53:31;;;;;;;2.40;0.80;;;-1.30;99.90;;;;;;5070112;28;20768;-61
2024/01/16 07:55:58;;;;;;;1.80;0.80;;;-1.40;1.00;;;;;;5061881;28;20494;-61
2024/01/16 07:58:25;;;;;;;0.85;0.50;;;-1.30;99.90;;;;;;5064256;28;20438;-62
2024/01/16 08:00:55;;;;;;;0.80;0.50;;;-1.30;99.90;;;;;;5069271;28;20462;-61
2024/01/16 08:03:22;;;;;;;1.90;0.60;;;-1.30;31.60;;;;;;5070586;28;20443;-61
2024/01/16 08:05:49;;;;;;;1.40;0.50;;;-1.30;1.00;;;;;;5065347;28;20443;-60
2024/01/16 08:08:18;;;;;;;1.40;0.57;;;-1.30;9.80;;;;;;5065012;28;20431;-60
2024/01/16 08:10:45;;;;;;;1.10;0.60;;;-1.20;1.00;;;;;;5068524;28;20834;-60
2024/01/16 08:13:12;;;;;;;1.20;0.50;;;-1.10;1.00;;;;;;5068226;28;20430;-60
2024/01/16 08:15:39;;;;;;;1.00;0.57;;;-1.00;1.00;;;;;;5070445;28;20875;-59
2024/01/16 08:18:06;;;;;;;0.80;0.40;;;-0.90;1.00;;;;;;5067440;28;20817;-60
2024/01/16 08:20:33;;;;;;;1.48;0.70;;;-0.90;1.00;;;;;;5073600;28;20852;-59
2024/01/16 08:23:00;;;;;;;1.92;0.60;;;-0.90;1.00;;;;;;5074257;28;20436;-59
2024/01/16 08:25:28;;;;;;;1.50;0.60;;;-0.90;99.90;;;;;;5073459;28;20423;-60
2024/01/16 08:27:55;;;;;;;2.03;0.60;;;-0.80;1.00;;;;;;5073778;28;20423;-60
2024/01/16 08:30:22;;;;;;;1.65;0.50;;;-0.80;99.90;;;;;;5058015;28;20821;-60
2024/01/16 08:32:49;;;;;;;1.30;0.60;;;-0.70;99.90;;;;;;5073654;28;20497;-60
2024/01/16 08:35:17;;;;;;;2.00;0.60;;;-0.70;99.90;;;;;;5074916;28;20454;-60
2024/01/16 08:37:44;;;;;;;1.20;0.50;;;-0.70;99.90;;;;;;5074669;28;20993;-60
2024/01/16 08:40:12;;;;;;;3.65;0.57;;;-0.60;99.90;;;;;;5072488;28;20437;-60
2024/01/16 08:42:41;;;;;;;0.90;0.50;;;-0.50;99.90;;;;;;5075944;28;20511;-60
2024/01/16 08:45:08;;;;;;;1.65;0.60;;;-0.50;99.90;;;;;;5074726;28;20434;-60
2024/01/16 08:47:35;;;;;;;2.30;0.60;;;-0.50;99.90;;;;;;5075019;28;20431;-60
2024/01/16 08:50:03;;;;;;;2.85;0.50;;;-0.40;99.90;;;;;;5071637;28;20997;-60
2024/01/16 08:52:30;;;;;;;3.30;0.60;;;-0.40;99.90;;;;;;5069875;28;20455;-59
2024/01/16 08:54:58;;;;;;;2.90;1.00;;;-0.40;99.90;;;;;;5074320;28;20491;-60
2024/01/16 08:57:25;;;;;;;2.30;0.73;;;-0.40;99.90;;;;;;5073960;28;20520;-59
2024/01/16 08:59:53;;;;;;;1.70;0.60;;;-0.30;99.90;;;;;;5073947;28;20817;-60
2024/01/16 09:02:21;;;;;;;1.63;0.57;;;-0.20;99.90;;;;;;5073228;28;20485;-63
2024/01/16 09:04:50;;;;;;;1.15;0.50;;;0.00;99.90;;;;;;5071334;28;20442;-59
2024/01/16 09:07:17;;;;;;;1.60;0.50;;;0.10;99.90;;;;;;5072087;28;20442;-60
2024/01/16 09:09:44;;;;;;;1.10;0.40;;;0.10;99.90;;;;;;5073746;28;20706;-60
2024/01/16 09:12:11;;;;;;;3.70;0.60;;;0.30;99.90;;;;;;5073098;28;20480;-60
2024/01/16 09:14:38;;;;;;;0.90;0.55;;;0.40;99.90;;;;;;5072570;28;20446;-60
2024/01/16 09:17:07;;;;;;;1.30;0.50;;;0.30;99.90;;;;;;5073755;28;20434;-60
2024/01/16 09:19:34;;;;;;;2.20;0.70;;;0.30;99.90;;;;;;5073234;28;20424;-60
2024/01/16 09:22:02;;;;;;;1.50;0.50;;;0.30;99.90;;;;;;5074054;28;20839;-60
2024/01/16 09:24:30;;;;;;;1.80;0.57;;;0.30;99.90;;;;;;5069338;28;20427;-60
2024/01/16 09:26:58;;;;;;;1.58;0.60;;;0.30;99.90;;;;;;5072372;28;20420;-60
2024/01/16 09:29:25;;;;;;;2.63;0.60;;;0.30;99.90;;;;;;5072569;28;20462;-60
2024/01/16 09:31:52;;;;;;;1.23;0.60;;;0.30;99.90;;;;;;5072952;28;20439;-60
2024/01/16 09:34:20;;;;;;;1.00;0.40;;;0.30;99.90;;;;;;5072902;28;20435;-60
2024/01/16 09:36:47;;;;;;;1.00;0.50;;;0.30;99.90;;;;;;5073031;28;20419;-60
2024/01/16 09:39:16;;;;;;;2.13;0.60;;;0.40;99.90;;;;;;5066363;28;20796;-60
2024/01/16 09:41:43;;;;;;;1.20;0.50;;;0.40;99.90;;;;;;5072699;28;20432;-60
2024/01/16 09:44:10;;;;;;;0.70;0.40;;;0.40;99.90;;;;;;5069452;28;20467;-60
2024/01/16 09:46:39;;;;;;;0.80;0.47;;;0.50;93.40;;;;;;5066146;28;20443;-60
2024/01/16 09:49:07;;;;;;;1.90;0.50;;;0.60;94.50;;;;;;5072586;28;20447;-61
2024/01/16 09:51:36;;;;;;;1.30;0.50;;;0.80;99.90;;;;;;5071961;28;20539;-60
2024/01/16 09:54:08;;;;;;;1.02;0.60;;;0.90;51.20;;;;;;5069091;28;20853;-59
2024/01/16 09:56:40;;;;;;;1.10;0.50;;;1.00;36.00;;;;;;5072895;28;20448;-60
2024/01/16 09:59:09;;;;;;;1.30;0.50;;;1.10;22.30;;;;;;5065167;28;20431;-59
2024/01/16 10:01:38;;;;;;;1.60;0.50;;;1.10;18.70;;;;;;5073341;28;20448;-59
2024/01/16 10:04:06;;;;;;;1.80;0.50;;;1.30;86.60;;;;;;5057287;28;21059;-60
2024/01/16 10:06:38;;;;;;;2.70;0.50;;;1.40;7.80;;;;;;5074257;28;20439;-59
2024/01/16 10:09:06;;;;;;;1.30;0.60;;;1.50;1.00;;;;;;5071733;28;20443;-60
2024/01/16 10:11:34;;;;;;;2.00;0.60;;;1.60;1.00;;;;;;5071724;28;20479;-60
2024/01/16 10:14:02;;;;;;;2.45;0.60;;;1.70;1.00;;;;;;5071713;28;20470;-60
2024/01/16 10:16:56;;;;;;;1.00;0.50;;;1.80;1.00;;;;;;5072208;28;20478;-60
2024/01/16 10:19:23;;;;;;;1.80;0.50;;;1.90;1.00;;;;;;5071699;28;20789;-61
2024/01/16 10:21:52;;;;;;;0.68;0.40;;;1.90;1.00;;;;;;5071434;28;20447;-61
2024/01/16 10:24:19;;;;;;;1.42;0.50;;;2.00;1.00;;;;;;5073677;28;20766;-60
2024/01/16 10:26:46;;;;;;;1.20;0.50;;;2.20;1.00;;;;;;5072261;28;20502;-60
2024/01/16 10:29:13;;;;;;;0.90;0.40;;;2.50;1.00;;;;;;5071743;28;20729;-60
2024/01/16 10:31:41;;;;;;;2.60;0.50;;;2.50;1.00;;;;;;5071913;28;20473;-59
2024/01/16 10:34:21;;;;;;;1.30;0.40;;;2.40;1.00;;;;;;5071974;28;20506;-59
2024/01/16 10:36:49;;;;;;;1.30;0.40;;;2.40;1.00;;;;;;5072321;28;20499;-59
2024/01/16 10:39:17;;;;;;;2.20;0.50;;;2.60;1.00;;;;;;5070847;28;20439;-59
2024/01/16 10:41:56;;;;;;;1.00;0.50;;;2.70;1.00;;;;;;5066722;28;20438;-59
2024/01/16 10:44:23;;;;;;;1.50;0.50;;;2.60;1.00;;;;;;5068183;28;20532;-59
2024/01/16 10:46:50;;;;;;;2.38;0.50;;;2.50;1.00;;;;;;5069418;28;20435;-59
2024/01/16 10:49:17;;;;;;;1.80;0.52;;;2.50;1.00;;;;;;5071014;28;20812;-59
2024/01/16 10:51:45;;;;;;;1.70;0.40;;;2.50;1.00;;;;;;5071607;28;20430;-59
2024/01/16 10:54:15;;;;;;;0.73;0.40;;;2.60;1.00;;;;;;5071471;28;20447;-59
2024/01/16 10:56:47;;;;;;;1.60;0.40;;;2.60;1.00;;;;;;5071709;28;20724;-59
2024/01/16 10:59:22;;;;;;;1.37;0.50;;;2.50;1.00;;;;;;5068504;28;20545;-59
2024/01/16 11:01:52;;;;;;;1.33;0.50;;;2.50;1.00;;;;;;5065738;28;20439;-59
2024/01/16 11:04:21;;;;;;;1.70;0.40;;;2.40;1.00;;;;;;5068766;28;20537;-59
2024/01/16 11:06:52;;;;;;;2.75;0.40;;;2.40;1.00;;;;;;5070251;28;20435;-59
2024/01/16 11:09:21;;;;;;;1.80;0.50;;;2.30;1.00;;;;;;5071476;28;20489;-59
2024/01/16 11:11:54;;;;;;;2.90;0.80;;;2.30;1.00;;;;;;5068507;28;20431;-59
2024/01/16 11:14:22;;;;;;;0.68;0.40;;;2.30;1.00;;;;;;5071374;28;20564;-59
2024/01/16 11:16:50;;;;;;;1.20;0.40;;;2.20;1.00;;;;;;5070190;28;20435;-59
2024/01/16 11:19:20;;;;;;;1.00;0.60;;;2.20;1.00;;;;;;5070332;28;20431;-60
2024/01/16 11:21:48;;;;;;;1.10;0.40;;;2.10;1.00;;;;;;5068586;28;20435;-60
2024/01/16 11:24:15;;;;;;;0.80;0.40;;;2.10;1.00;;;;;;5072239;28;20474;-60
2024/01/16 11:26:43;;;;;;;1.10;0.40;;;2.00;1.00;;;;;;5070070;28;21355;-60
2024/01/16 11:29:39;;;;;;;1.30;0.50;;;2.10;1.00;;;;;;5071254;28;20493;-60
2024/01/16 11:32:07;;;;;;;0.70;0.40;;;2.10;1.00;;;;;;5066668;28;20496;-60
2024/01/16 11:34:56;;;;;;;0.90;0.40;;;2.20;1.00;;;;;;5069955;28;20816;-60
2024/01/16 11:37:29;;;;;;;1.67;0.40;;;2.20;1.00;;;;;;5070341;28;20435;-59
2024/01/16 11:40:24;;;;;;;1.70;0.40;;;2.20;1.00;;;;;;5071584;28;20443;-59
2024/01/16 11:42:52;;;;;;;1.50;0.40;;;2.30;1.00;;;;;;5071310;28;20447;-59
2024/01/16 11:45:53;;;;;;;1.77;0.35;;;2.30;1.00;;;;;;5071193;28;20706;-59
2024/01/16 11:48:21;;;;;;;1.48;0.40;;;2.30;1.00;;;;;;5068437;28;20510;-59
2024/01/16 11:50:48;;;;;;;0.82;0.30;;;2.30;1.00;;;;;;5072432;28;21032;-59
2024/01/16 11:53:39;;;;;;;1.10;0.30;;;2.30;1.00;;;;;;5073772;28;20427;-59
2024/01/16 11:56:37;;;;;;;1.45;0.40;;;2.40;1.00;;;;;;5076609;28;20432;-59
2024/01/16 11:59:38;;;;;;;1.20;0.30;;;2.50;1.00;;;;;;5073138;28;20514;-59
2024/01/16 12:02:13;;;;;;;0.90;0.40;;;2.40;1.00;;;;;;5073719;28;20534;-60
2024/01/16 12:04:40;;;;;;;0.70;0.30;;;2.50;1.00;;;;;;5075299;28;20443;-60
2024/01/16 12:07:08;;;;;;;1.40;0.40;;;2.50;1.00;;;;;;5075332;28;20431;-60
2024/01/16 12:09:35;;;;;;;0.65;0.40;;;2.50;1.00;;;;;;5074240;28;20453;-60
2024/01/16 12:12:03;;;;;;;1.00;0.35;;;2.30;1.00;;;;;;5068485;28;20451;-60
2024/01/16 12:14:31;;;;;;;0.77;0.40;;;2.30;1.00;;;;;;5075883;28;20419;-60
2024/01/16 12:17:11;;;;;;;2.40;0.60;;;2.40;1.00;;;;;;5074020;28;20431;-60
2024/01/16 12:19:41;;;;;;;2.28;0.40;;;2.50;1.00;;;;;;5072511;28;21147;-60
2024/01/16 12:22:10;;;;;;;2.92;0.47;;;2.40;1.00;;;;;;5071729;28;20455;-60
2024/01/16 12:24:38;;;;;;;1.55;0.40;;;2.50;1.00;;;;;;5062011;28;20860;-60
2024/01/16 12:27:06;;;;;;;1.00;0.40;;;2.60;1.00;;;;;;5071421;28;20443;-59
2024/01/16 12:29:33;;;;;;;2.87;0.40;;;2.50;1.00;;;;;;5073025;28;20488;-59
2024/01/16 12:32:08;;;;;;;0.70;0.30;;;2.60;1.00;;;;;;5074422;28;20435;-59
2024/01/16 12:34:45;;;;;;;1.40;0.40;;;2.50;1.00;;;;;;5072840;28;21108;-59
2024/01/16 12:37:12;;;;;;;1.08;0.50;;;2.50;1.00;;;;;;5074363;28;20486;-59
2024/01/16 12:39:41;;;;;;;1.15;0.40;;;2.50;1.00;;;;;;5073228;28;20435;-59
2024/01/16 12:42:09;;;;;;;0.85;0.40;;;2.50;1.00;;;;;;5074459;28;20423;-59
2024/01/16 12:44:37;;;;;;;0.80;0.40;;;2.60;1.00;;;;;;5074046;28;20722;-59
2024/01/16 12:47:04;;;;;;;3.20;0.40;;;2.70;1.00;;;;;;5075189;28;20820;-59
2024/01/16 12:49:31;;;;;;;0.77;0.40;;;2.50;1.00;;;;;;5074522;28;20422;-59
2024/01/16 12:52:20;;;;;;;0.95;0.40;;;2.60;1.00;;;;;;5073680;28;20426;-60
2024/01/16 12:54:49;;;;;;;0.80;0.30;;;2.50;1.00;;;;;;5073686;28;20426;-60
2024/01/16 12:57:19;;;;;;;1.40;0.40;;;2.50;1.00;;;;;;5072690;28;20485;-61
2024/01/16 12:59:48;;;;;;;1.27;0.30;;;2.50;1.00;;;;;;5073873;28;20734;-61
2024/01/16 13:02:22;;;;;;;0.95;0.40;;;2.50;1.00;;;;;;5073414;28;20526;-61
2024/01/16 13:04:59;;;;;;;0.90;0.40;;;2.50;1.00;;;;;;5073842;28;20492;-61